Tallahassee, FL (32303)

8:16 PM EDT on October 21, 2014 (GMT -0400)
Godby High WeatherSTEM | Change Station
CLOSE
Current Station
Personal Weather Station
Location: Tallahassee, FL
Elevation: 121 ft
Nearby Weather Stations

Elev 121 ft 30.46 °N, 84.32 °W | Updated 12 minutes ago

Clear
Clear
67.8 °F
Feels Like 67.8 °F
N
0.0
Wind Variable Wind from SE
Gusts 0.0 mph

Today
High -- | Low -- °F
--% Chance of Precip.
Yesterday
High -- | Low -- °F
Precip. -- in
7:43 AM 6:59 PM
Waning Crescent, 4% visible
Pressure 29.94 in
Visibility 10.0 miles
Clouds Few 25000 ft
Dew Point 58 °F
Humidity 70%
Rainfall 0.00 in
Snow Depth Not available.
UV 0.0 out of 12
Pollen 4.90 out of 12
Air Quality Not available.
Flu Activity Local Activity
METAR KTLH 212353Z 00000KT 10SM FEW250 21/12 A2994 RMK AO2 SLP137 T02060117 10283 20206 53004 $

More Conditions Fewer Conditions

Pressure 29.94 in
Visibility 10.0 miles
Clouds Few 25000 ft
Dew Point 58 °F
Humidity 70%
Rainfall 0.00 in
Snow Depth Not available.
UV 0.0 out of 12
Pollen 4.90 out of 12
Air Quality Not available.
Flu Activity Local Activity
METAR KTLH 212353Z 00000KT 10SM FEW250 21/12 A2994 RMK AO2 SLP137 T02060117 10283 20206 53004 $

More Conditions Fewer Conditions

10-Day Weather Forecast

Almanac

Astronomy

Oct. 21, 2014 Rise Set
Actual Time 7:43 AM EDT 6:59 PM EDT
Civil Twilight 7:19 AM EDT 7:24 PM EDT
Nautical Twilight 6:51 AM EDT 7:52 PM EDT
Astronomical Twilight 6:23 AM EDT 8:20 PM EDT
Moon 5:36 AM EDT (10/21) 5:46 PM EDT (10/21)
Length of Visible Light 12h 04m
Length of Day
11h 16m
Tomorrow will be 1m 44s shorter.
Waning Crescent, 4% of the Moon is Illuminated
Today
Waning Crescent
Oct 23
New
Oct 30
First Quarter
Nov 6
Full
Nov 14
Last Quarter

Today's Extremes

State Highs State Lows

Community

WunderPhotos

Upload Photos

1,763,826 photos uploaded!

Nearby

Snow Depth

Station Depth Elevation
No new snow has been reported.

Earthquake Activity

City Distance Mag. Time & Date
No recent earthquake activity has been reported nearby.
Minimum magnitude displayed is 2.5.

Coastal Water Temperatures

Place Temperature
Apalachicola, FL 75.0 °F
Panama City, FL 75.9 °F

Nearby Weather Stations